sensor_id;sensor_type;location;lat;lon;timestamp;temperature;humidity
16172;DHT22;8192;53.596;10.166;2023-06-04T00:00:53;21.80;45.20
16172;DHT22;8192;53.596;10.166;2023-06-04T00:03:20;21.70;45.10
16172;DHT22;8192;53.596;10.166;2023-06-04T00:05:47;21.70;45.00
16172;DHT22;8192;53.596;10.166;2023-06-04T00:08:13;21.70;44.90
16172;DHT22;8192;53.596;10.166;2023-06-04T00:10:40;21.70;45.00
16172;DHT22;8192;53.596;10.166;2023-06-04T00:13:11;21.70;44.90
16172;DHT22;8192;53.596;10.166;2023-06-04T00:15:38;21.70;45.00
16172;DHT22;8192;53.596;10.166;2023-06-04T00:18:07;21.60;44.90
16172;DHT22;8192;53.596;10.166;2023-06-04T00:20:36;21.70;45.00
16172;DHT22;8192;53.596;10.166;2023-06-04T00:23:03;21.70;44.80
16172;DHT22;8192;53.596;10.166;2023-06-04T00:25:31;21.60;44.90
16172;DHT22;8192;53.596;10.166;2023-06-04T00:27:58;21.60;44.80
16172;DHT22;8192;53.596;10.166;2023-06-04T00:30:26;21.60;44.80
16172;DHT22;8192;53.596;10.166;2023-06-04T00:32:53;21.60;45.00
16172;DHT22;8192;53.596;10.166;2023-06-04T00:35:19;21.60;44.90
16172;DHT22;8192;53.596;10.166;2023-06-04T00:37:47;21.60;44.80
16172;DHT22;8192;53.596;10.166;2023-06-04T00:40:14;21.60;44.70
16172;DHT22;8192;53.596;10.166;2023-06-04T00:42:41;21.50;44.70
16172;DHT22;8192;53.596;10.166;2023-06-04T00:45:09;21.60;44.70
16172;DHT22;8192;53.596;10.166;2023-06-04T00:47:37;21.50;44.90
16172;DHT22;8192;53.596;10.166;2023-06-04T00:50:05;21.50;44.80
16172;DHT22;8192;53.596;10.166;2023-06-04T00:52:33;21.50;44.80
16172;DHT22;8192;53.596;10.166;2023-06-04T00:55:00;21.50;44.80
16172;DHT22;8192;53.596;10.166;2023-06-04T00:57:27;21.50;44.70
16172;DHT22;8192;53.596;10.166;2023-06-04T00:59:55;21.40;44.80
16172;DHT22;8192;53.596;10.166;2023-06-04T01:02:23;21.40;44.70
16172;DHT22;8192;53.596;10.166;2023-06-04T01:05:01;21.40;44.70
16172;DHT22;8192;53.596;10.166;2023-06-04T01:07:30;21.40;44.60
16172;DHT22;8192;53.596;10.166;2023-06-04T01:09:57;21.40;44.70
16172;DHT22;8192;53.596;10.166;2023-06-04T01:12:23;21.40;44.70
16172;DHT22;8192;53.596;10.166;2023-06-04T01:14:50;21.40;44.60
16172;DHT22;8192;53.596;10.166;2023-06-04T01:17:20;21.40;44.70
16172;DHT22;8192;53.596;10.166;2023-06-04T01:20:16;21.40;44.70
16172;DHT22;8192;53.596;10.166;2023-06-04T01:22:56;21.40;44.70
16172;DHT22;8192;53.596;10.166;2023-06-04T01:25:33;21.40;45.20
16172;DHT22;8192;53.596;10.166;2023-06-04T01:28:03;21.40;44.50
16172;DHT22;8192;53.596;10.166;2023-06-04T01:30:32;21.30;44.50
16172;DHT22;8192;53.596;10.166;2023-06-04T01:33:00;21.30;44.50
16172;DHT22;8192;53.596;10.166;2023-06-04T01:35:29;21.30;44.50
16172;DHT22;8192;53.596;10.166;2023-06-04T01:37:57;21.30;45.20
16172;DHT22;8192;53.596;10.166;2023-06-04T01:40:24;21.30;44.50
16172;DHT22;8192;53.596;10.166;2023-06-04T01:42:52;21.30;44.50
16172;DHT22;8192;53.596;10.166;2023-06-04T01:45:20;21.30;44.60
16172;DHT22;8192;53.596;10.166;2023-06-04T01:47:47;21.30;44.60
16172;DHT22;8192;53.596;10.166;2023-06-04T01:50:14;21.20;44.40
16172;DHT22;8192;53.596;10.166;2023-06-04T01:52:42;21.20;44.50
16172;DHT22;8192;53.596;10.166;2023-06-04T01:55:10;21.20;44.50
16172;DHT22;8192;53.596;10.166;2023-06-04T01:57:37;21.20;44.50
16172;DHT22;8192;53.596;10.166;2023-06-04T02:00:05;21.20;44.50
16172;DHT22;8192;53.596;10.166;2023-06-04T02:02:33;21.20;44.50
16172;DHT22;8192;53.596;10.166;2023-06-04T02:05:01;21.20;44.50
16172;DHT22;8192;53.596;10.166;2023-06-04T02:07:28;21.20;44.50
16172;DHT22;8192;53.596;10.166;2023-06-04T02:09:58;21.20;44.50
16172;DHT22;8192;53.596;10.166;2023-06-04T02:12:25;21.20;44.60
16172;DHT22;8192;53.596;10.166;2023-06-04T02:14:51;21.20;44.70
16172;DHT22;8192;53.596;10.166;2023-06-04T02:17:18;21.20;44.50
16172;DHT22;8192;53.596;10.166;2023-06-04T02:19:46;21.30;44.40
16172;DHT22;8192;53.596;10.166;2023-06-04T02:22:15;21.30;44.10
16172;DHT22;8192;53.596;10.166;2023-06-04T02:24:42;21.40;43.90
16172;DHT22;8192;53.596;10.166;2023-06-04T02:27:12;21.40;43.50
16172;DHT22;8192;53.596;10.166;2023-06-04T02:29:40;21.50;43.40
16172;DHT22;8192;53.596;10.166;2023-06-04T02:32:07;21.60;43.30
16172;DHT22;8192;53.596;10.166;2023-06-04T02:34:34;21.60;43.10
16172;DHT22;8192;53.596;10.166;2023-06-04T02:37:02;21.70;43.10
16172;DHT22;8192;53.596;10.166;2023-06-04T02:39:29;21.70;42.90
16172;DHT22;8192;53.596;10.166;2023-06-04T02:41:56;21.80;42.90
16172;DHT22;8192;53.596;10.166;2023-06-04T02:44:24;21.80;42.70
16172;DHT22;8192;53.596;10.166;2023-06-04T02:46:51;21.80;42.90
16172;DHT22;8192;53.596;10.166;2023-06-04T02:49:18;21.90;42.90
16172;DHT22;8192;53.596;10.166;2023-06-04T02:51:44;21.90;43.00
16172;DHT22;8192;53.596;10.166;2023-06-04T02:54:11;22.00;43.70
16172;DHT22;8192;53.596;10.166;2023-06-04T02:56:38;22.10;43.90
16172;DHT22;8192;53.596;10.166;2023-06-04T02:59:06;22.10;44.20
16172;DHT22;8192;53.596;10.166;2023-06-04T03:01:36;22.20;44.00
16172;DHT22;8192;53.596;10.166;2023-06-04T03:04:02;22.20;44.10
16172;DHT22;8192;53.596;10.166;2023-06-04T03:06:31;22.20;44.60
16172;DHT22;8192;53.596;10.166;2023-06-04T03:08:58;22.30;44.30
16172;DHT22;8192;53.596;10.166;2023-06-04T03:11:26;22.30;44.10
16172;DHT22;8192;53.596;10.166;2023-06-04T03:13:53;22.30;44.30
16172;DHT22;8192;53.596;10.166;2023-06-04T03:16:20;22.30;44.10
16172;DHT22;8192;53.596;10.166;2023-06-04T03:18:49;22.30;44.30
16172;DHT22;8192;53.596;10.166;2023-06-04T03:21:15;22.30;43.90
16172;DHT22;8192;53.596;10.166;2023-06-04T03:23:43;22.30;43.40
16172;DHT22;8192;53.596;10.166;2023-06-04T03:26:10;22.30;42.80
16172;DHT22;8192;53.596;10.166;2023-06-04T03:28:38;22.30;44.40
16172;DHT22;8192;53.596;10.166;2023-06-04T03:31:05;22.30;44.00
16172;DHT22;8192;53.596;10.166;2023-06-04T03:33:32;22.40;44.10
16172;DHT22;8192;53.596;10.166;2023-06-04T03:36:00;22.30;44.10
16172;DHT22;8192;53.596;10.166;2023-06-04T03:38:28;22.30;44.10
16172;DHT22;8192;53.596;10.166;2023-06-04T03:40:55;22.30;44.10
16172;DHT22;8192;53.596;10.166;2023-06-04T03:43:22;22.30;43.90
16172;DHT22;8192;53.596;10.166;2023-06-04T03:45:48;22.30;43.90
16172;DHT22;8192;53.596;10.166;2023-06-04T03:48:15;22.40;43.80
16172;DHT22;8192;53.596;10.166;2023-06-04T03:50:42;22.40;43.90
16172;DHT22;8192;53.596;10.166;2023-06-04T03:53:12;22.40;43.90
16172;DHT22;8192;53.596;10.166;2023-06-04T03:55:39;22.40;43.90
16172;DHT22;8192;53.596;10.166;2023-06-04T03:58:06;22.40;44.10
16172;DHT22;8192;53.596;10.166;2023-06-04T04:00:34;22.40;44.20
16172;DHT22;8192;53.596;10.166;2023-06-04T04:03:01;22.40;43.90
16172;DHT22;8192;53.596;10.166;2023-06-04T04:05:28;22.40;43.80
16172;DHT22;8192;53.596;10.166;2023-06-04T04:07:55;22.40;43.60
16172;DHT22;8192;53.596;10.166;2023-06-04T04:10:23;22.50;43.90
16172;DHT22;8192;53.596;10.166;2023-06-04T04:12:50;22.40;43.80
16172;DHT22;8192;53.596;10.166;2023-06-04T04:15:20;22.50;43.90
16172;DHT22;8192;53.596;10.166;2023-06-04T04:17:47;22.50;43.80
16172;DHT22;8192;53.596;10.166;2023-06-04T04:20:14;22.40;43.60
16172;DHT22;8192;53.596;10.166;2023-06-04T04:22:41;22.50;43.80
16172;DHT22;8192;53.596;10.166;2023-06-04T04:25:09;22.50;43.90
16172;DHT22;8192;53.596;10.166;2023-06-04T04:27:37;22.40;43.90
16172;DHT22;8192;53.596;10.166;2023-06-04T04:30:07;22.40;43.70
16172;DHT22;8192;53.596;10.166;2023-06-04T04:32:35;22.40;43.70
16172;DHT22;8192;53.596;10.166;2023-06-04T04:35:04;22.40;43.80
16172;DHT22;8192;53.596;10.166;2023-06-04T04:37:33;22.50;43.70
16172;DHT22;8192;53.596;10.166;2023-06-04T04:40:06;22.50;44.10
16172;DHT22;8192;53.596;10.166;2023-06-04T04:42:36;22.50;44.00
16172;DHT22;8192;53.596;10.166;2023-06-04T04:45:03;22.50;42.60
16172;DHT22;8192;53.596;10.166;2023-06-04T04:47:30;22.40;44.50
16172;DHT22;8192;53.596;10.166;2023-06-04T04:49:57;22.40;44.60
16172;DHT22;8192;53.596;10.166;2023-06-04T04:52:24;22.50;44.40
16172;DHT22;8192;53.596;10.166;2023-06-04T04:54:51;22.50;44.60
16172;DHT22;8192;53.596;10.166;2023-06-04T04:57:21;22.50;44.50
16172;DHT22;8192;53.596;10.166;2023-06-04T04:59:49;22.50;44.30
16172;DHT22;8192;53.596;10.166;2023-06-04T05:02:16;22.50;44.20
16172;DHT22;8192;53.596;10.166;2023-06-04T05:04:43;22.60;44.20
16172;DHT22;8192;53.596;10.166;2023-06-04T05:07:10;22.60;44.30
16172;DHT22;8192;53.596;10.166;2023-06-04T05:09:37;22.60;44.20
16172;DHT22;8192;53.596;10.166;2023-06-04T05:12:04;22.60;44.30
16172;DHT22;8192;53.596;10.166;2023-06-04T05:14:32;22.60;44.30
16172;DHT22;8192;53.596;10.166;2023-06-04T05:17:02;22.60;44.20
16172;DHT22;8192;53.596;10.166;2023-06-04T05:19:29;22.60;44.20
16172;DHT22;8192;53.596;10.166;2023-06-04T05:21:58;22.60;44.20
16172;DHT22;8192;53.596;10.166;2023-06-04T05:24:26;22.60;44.10
16172;DHT22;8192;53.596;10.166;2023-06-04T05:26:54;22.60;44.20
16172;DHT22;8192;53.596;10.166;2023-06-04T05:29:22;22.60;44.10
16172;DHT22;8192;53.596;10.166;2023-06-04T05:31:49;22.60;44.10
16172;DHT22;8192;53.596;10.166;2023-06-04T05:34:17;22.60;44.10
16172;DHT22;8192;53.596;10.166;2023-06-04T05:36:44;22.60;44.20
16172;DHT22;8192;53.596;10.166;2023-06-04T05:39:11;22.60;44.20
16172;DHT22;8192;53.596;10.166;2023-06-04T05:41:38;22.60;44.20
16172;DHT22;8192;53.596;10.166;2023-06-04T05:44:06;22.60;44.20
16172;DHT22;8192;53.596;10.166;2023-06-04T05:46:33;22.60;44.20
16172;DHT22;8192;53.596;10.166;2023-06-04T05:48:59;22.70;44.10
16172;DHT22;8192;53.596;10.166;2023-06-04T05:51:28;22.70;44.00
16172;DHT22;8192;53.596;10.166;2023-06-04T05:53:55;22.70;44.10
16172;DHT22;8192;53.596;10.166;2023-06-04T05:56:22;22.70;44.00
16172;DHT22;8192;53.596;10.166;2023-06-04T05:58:51;22.70;44.60
16172;DHT22;8192;53.596;10.166;2023-06-04T06:01:18;22.70;44.00
16172;DHT22;8192;53.596;10.166;2023-06-04T06:03:45;22.70;44.00
16172;DHT22;8192;53.596;10.166;2023-06-04T06:06:12;22.70;44.00
16172;DHT22;8192;53.596;10.166;2023-06-04T06:08:40;22.70;44.00
16172;DHT22;8192;53.596;10.166;2023-06-04T06:11:07;22.70;44.10
16172;DHT22;8192;53.596;10.166;2023-06-04T06:13:34;22.70;44.00
16172;DHT22;8192;53.596;10.166;2023-06-04T06:16:01;22.60;44.20
16172;DHT22;8192;53.596;10.166;2023-06-04T06:18:28;22.60;46.10
16172;DHT22;8192;53.596;10.166;2023-06-04T06:20:56;22.60;44.40
16172;DHT22;8192;53.596;10.166;2023-06-04T06:23:22;22.50;43.30
16172;DHT22;8192;53.596;10.166;2023-06-04T06:25:51;22.40;44.90
16172;DHT22;8192;53.596;10.166;2023-06-04T06:28:19;22.20;44.30
16172;DHT22;8192;53.596;10.166;2023-06-04T06:30:47;21.00;45.60
16172;DHT22;8192;53.596;10.166;2023-06-04T06:33:14;20.20;46.50
16172;DHT22;8192;53.596;10.166;2023-06-04T06:35:41;20.10;46.90
16172;DHT22;8192;53.596;10.166;2023-06-04T06:38:11;20.00;47.40
16172;DHT22;8192;53.596;10.166;2023-06-04T06:40:39;19.90;46.90
16172;DHT22;8192;53.596;10.166;2023-06-04T06:43:08;19.60;47.20
16172;DHT22;8192;53.596;10.166;2023-06-04T06:45:35;19.60;47.90
16172;DHT22;8192;53.596;10.166;2023-06-04T06:48:02;19.50;47.10
16172;DHT22;8192;53.596;10.166;2023-06-04T06:50:29;19.20;48.30
16172;DHT22;8192;53.596;10.166;2023-06-04T06:52:56;19.90;47.70
16172;DHT22;8192;53.596;10.166;2023-06-04T06:55:23;20.60;46.10
16172;DHT22;8192;53.596;10.166;2023-06-04T06:57:50;20.90;44.00
16172;DHT22;8192;53.596;10.166;2023-06-04T07:00:18;21.10;43.90
16172;DHT22;8192;53.596;10.166;2023-06-04T07:02:45;21.10;43.60
16172;DHT22;8192;53.596;10.166;2023-06-04T07:05:13;21.20;43.40
16172;DHT22;8192;53.596;10.166;2023-06-04T07:07:41;20.40;44.30
16172;DHT22;8192;53.596;10.166;2023-06-04T07:10:09;19.90;45.20
16172;DHT22;8192;53.596;10.166;2023-06-04T07:12:36;19.60;46.40
16172;DHT22;8192;53.596;10.166;2023-06-04T07:15:05;19.50;46.80
16172;DHT22;8192;53.596;10.166;2023-06-04T07:17:35;20.00;45.20
16172;DHT22;8192;53.596;10.166;2023-06-04T07:20:03;20.60;44.10
16172;DHT22;8192;53.596;10.166;2023-06-04T07:22:32;20.90;43.90
16172;DHT22;8192;53.596;10.166;2023-06-04T07:24:59;21.10;43.60
16172;DHT22;8192;53.596;10.166;2023-06-04T07:27:26;21.20;43.40
16172;DHT22;8192;53.596;10.166;2023-06-04T07:29:53;21.10;41.60
16172;DHT22;8192;53.596;10.166;2023-06-04T07:32:20;20.80;42.70
16172;DHT22;8192;53.596;10.166;2023-06-04T07:34:48;20.30;43.50
16172;DHT22;8192;53.596;10.166;2023-06-04T07:37:15;19.70;44.10
16172;DHT22;8192;53.596;10.166;2023-06-04T07:39:42;20.00;45.00
16172;DHT22;8192;53.596;10.166;2023-06-04T07:42:09;20.40;43.60
16172;DHT22;8192;53.596;10.166;2023-06-04T07:44:37;20.50;43.80
16172;DHT22;8192;53.596;10.166;2023-06-04T07:47:04;20.90;43.00
16172;DHT22;8192;53.596;10.166;2023-06-04T07:49:31;21.10;42.40
16172;DHT22;8192;53.596;10.166;2023-06-04T07:51:59;21.20;42.30
16172;DHT22;8192;53.596;10.166;2023-06-04T07:54:26;21.30;41.40
16172;DHT22;8192;53.596;10.166;2023-06-04T07:56:52;21.20;42.00
16172;DHT22;8192;53.596;10.166;2023-06-04T07:59:21;21.30;42.10
16172;DHT22;8192;53.596;10.166;2023-06-04T08:01:49;21.40;42.10
16172;DHT22;8192;53.596;10.166;2023-06-04T08:04:16;21.00;42.30
16172;DHT22;8192;53.596;10.166;2023-06-04T08:06:43;20.90;42.70
16172;DHT22;8192;53.596;10.166;2023-06-04T08:09:11;21.10;42.60
16172;DHT22;8192;53.596;10.166;2023-06-04T08:11:40;21.30;42.30
16172;DHT22;8192;53.596;10.166;2023-06-04T08:14:07;21.30;40.80
16172;DHT22;8192;53.596;10.166;2023-06-04T08:16:34;21.20;41.70
16172;DHT22;8192;53.596;10.166;2023-06-04T08:19:01;21.20;40.80
16172;DHT22;8192;53.596;10.166;2023-06-04T08:21:28;21.10;40.50
16172;DHT22;8192;53.596;10.166;2023-06-04T08:23:55;20.90;40.80
16172;DHT22;8192;53.596;10.166;2023-06-04T08:26:23;21.00;41.30
16172;DHT22;8192;53.596;10.166;2023-06-04T08:28:52;21.20;41.70
16172;DHT22;8192;53.596;10.166;2023-06-04T08:31:19;21.40;40.40
16172;DHT22;8192;53.596;10.166;2023-06-04T08:33:47;21.40;41.00
16172;DHT22;8192;53.596;10.166;2023-06-04T08:36:13;21.50;40.60
16172;DHT22;8192;53.596;10.166;2023-06-04T08:38:40;21.40;40.40
16172;DHT22;8192;53.596;10.166;2023-06-04T08:41:12;21.40;39.50
16172;DHT22;8192;53.596;10.166;2023-06-04T08:43:41;21.40;39.20
16172;DHT22;8192;53.596;10.166;2023-06-04T08:46:10;21.30;38.80
16172;DHT22;8192;53.596;10.166;2023-06-04T08:48:38;21.40;40.90
16172;DHT22;8192;53.596;10.166;2023-06-04T08:51:06;21.60;42.10
16172;DHT22;8192;53.596;10.166;2023-06-04T08:53:34;21.70;42.30
16172;DHT22;8192;53.596;10.166;2023-06-04T08:56:01;21.80;42.30
16172;DHT22;8192;53.596;10.166;2023-06-04T08:58:31;21.80;42.30
16172;DHT22;8192;53.596;10.166;2023-06-04T09:01:00;21.90;41.10
16172;DHT22;8192;53.596;10.166;2023-06-04T09:03:28;21.90;42.20
16172;DHT22;8192;53.596;10.166;2023-06-04T09:05:55;21.90;42.40
16172;DHT22;8192;53.596;10.166;2023-06-04T09:08:24;21.90;42.40
16172;DHT22;8192;53.596;10.166;2023-06-04T09:10:53;21.90;43.10
16172;DHT22;8192;53.596;10.166;2023-06-04T09:13:23;21.90;42.70
16172;DHT22;8192;53.596;10.166;2023-06-04T09:16:04;21.90;42.60
16172;DHT22;8192;53.596;10.166;2023-06-04T09:18:31;21.90;41.90
16172;DHT22;8192;53.596;10.166;2023-06-04T09:21:05;22.00;41.40
16172;DHT22;8192;53.596;10.166;2023-06-04T09:23:34;21.90;38.40
16172;DHT22;8192;53.596;10.166;2023-06-04T09:26:08;21.50;38.40
16172;DHT22;8192;53.596;10.166;2023-06-04T09:28:35;21.40;38.50
16172;DHT22;8192;53.596;10.166;2023-06-04T09:31:04;21.20;37.90
16172;DHT22;8192;53.596;10.166;2023-06-04T09:33:41;21.20;38.10
16172;DHT22;8192;53.596;10.166;2023-06-04T09:36:08;21.30;38.20
16172;DHT22;8192;53.596;10.166;2023-06-04T09:38:35;21.20;38.30
16172;DHT22;8192;53.596;10.166;2023-06-04T09:41:03;21.10;38.20
16172;DHT22;8192;53.596;10.166;2023-06-04T09:43:31;21.20;38.60
16172;DHT22;8192;53.596;10.166;2023-06-04T09:46:10;21.30;38.80
16172;DHT22;8192;53.596;10.166;2023-06-04T09:48:38;21.30;37.70
16172;DHT22;8192;53.596;10.166;2023-06-04T09:51:09;21.30;37.90
16172;DHT22;8192;53.596;10.166;2023-06-04T09:53:37;21.40;37.70
16172;DHT22;8192;53.596;10.166;2023-06-04T09:56:05;21.40;37.90
16172;DHT22;8192;53.596;10.166;2023-06-04T09:58:34;21.40;37.70
16172;DHT22;8192;53.596;10.166;2023-06-04T10:01:02;21.30;37.40
16172;DHT22;8192;53.596;10.166;2023-06-04T10:03:32;21.30;37.80
16172;DHT22;8192;53.596;10.166;2023-06-04T10:06:01;21.30;37.70
16172;DHT22;8192;53.596;10.166;2023-06-04T10:08:30;21.30;37.80
16172;DHT22;8192;53.596;10.166;2023-06-04T10:10:58;21.20;37.90
16172;DHT22;8192;53.596;10.166;2023-06-04T10:13:27;21.00;36.90
16172;DHT22;8192;53.596;10.166;2023-06-04T10:15:57;21.20;37.70
16172;DHT22;8192;53.596;10.166;2023-06-04T10:18:27;21.20;36.70
16172;DHT22;8192;53.596;10.166;2023-06-04T10:20:56;21.30;37.00
16172;DHT22;8192;53.596;10.166;2023-06-04T10:23:23;21.40;36.20
16172;DHT22;8192;53.596;10.166;2023-06-04T10:25:51;21.40;36.10
16172;DHT22;8192;53.596;10.166;2023-06-04T10:28:20;21.40;36.70
16172;DHT22;8192;53.596;10.166;2023-06-04T10:30:47;21.50;36.40
16172;DHT22;8192;53.596;10.166;2023-06-04T10:33:16;21.40;36.50
16172;DHT22;8192;53.596;10.166;2023-06-04T10:35:45;21.20;35.80
16172;DHT22;8192;53.596;10.166;2023-06-04T10:38:14;21.20;36.20
16172;DHT22;8192;53.596;10.166;2023-06-04T10:40:42;21.20;35.70
16172;DHT22;8192;53.596;10.166;2023-06-04T10:43:11;21.30;36.30
16172;DHT22;8192;53.596;10.166;2023-06-04T10:45:39;21.40;36.40
16172;DHT22;8192;53.596;10.166;2023-06-04T10:48:08;21.40;35.70
16172;DHT22;8192;53.596;10.166;2023-06-04T10:50:47;21.30;35.20
16172;DHT22;8192;53.596;10.166;2023-06-04T10:53:16;21.30;36.20
16172;DHT22;8192;53.596;10.166;2023-06-04T10:55:44;21.50;36.70
16172;DHT22;8192;53.596;10.166;2023-06-04T10:58:10;21.50;35.90
16172;DHT22;8192;53.596;10.166;2023-06-04T11:00:38;21.60;36.90
16172;DHT22;8192;53.596;10.166;2023-06-04T11:03:06;21.50;36.10
16172;DHT22;8192;53.596;10.166;2023-06-04T11:05:34;21.60;36.00
16172;DHT22;8192;53.596;10.166;2023-06-04T11:08:02;21.70;37.30
16172;DHT22;8192;53.596;10.166;2023-06-04T11:10:33;21.70;36.60
16172;DHT22;8192;53.596;10.166;2023-06-04T11:13:02;21.80;36.40
16172;DHT22;8192;53.596;10.166;2023-06-04T11:15:38;21.70;36.00
16172;DHT22;8192;53.596;10.166;2023-06-04T11:18:05;21.70;35.50
16172;DHT22;8192;53.596;10.166;2023-06-04T11:20:32;21.50;35.40
16172;DHT22;8192;53.596;10.166;2023-06-04T11:23:00;21.50;35.70
16172;DHT22;8192;53.596;10.166;2023-06-04T11:25:29;21.60;36.00
16172;DHT22;8192;53.596;10.166;2023-06-04T11:27:57;21.60;36.00
16172;DHT22;8192;53.596;10.166;2023-06-04T11:30:25;21.70;36.00
16172;DHT22;8192;53.596;10.166;2023-06-04T11:33:00;21.70;36.00
16172;DHT22;8192;53.596;10.166;2023-06-04T11:35:27;21.70;36.00
16172;DHT22;8192;53.596;10.166;2023-06-04T11:37:55;21.70;35.50
16172;DHT22;8192;53.596;10.166;2023-06-04T11:40:22;21.70;35.80
16172;DHT22;8192;53.596;10.166;2023-06-04T11:42:50;21.50;35.00
16172;DHT22;8192;53.596;10.166;2023-06-04T11:45:19;21.60;35.60
16172;DHT22;8192;53.596;10.166;2023-06-04T11:47:48;21.60;36.00
16172;DHT22;8192;53.596;10.166;2023-06-04T11:50:15;21.70;36.40
16172;DHT22;8192;53.596;10.166;2023-06-04T11:52:42;21.80;38.20
16172;DHT22;8192;53.596;10.166;2023-06-04T11:55:10;21.80;37.00
16172;DHT22;8192;53.596;10.166;2023-06-04T11:57:38;21.70;36.00
16172;DHT22;8192;53.596;10.166;2023-06-04T12:00:06;21.80;36.20
16172;DHT22;8192;53.596;10.166;2023-06-04T12:02:38;21.80;36.00
16172;DHT22;8192;53.596;10.166;2023-06-04T12:05:12;21.80;36.00
16172;DHT22;8192;53.596;10.166;2023-06-04T12:07:39;21.80;36.00
16172;DHT22;8192;53.596;10.166;2023-06-04T12:10:06;21.80;38.70
16172;DHT22;8192;53.596;10.166;2023-06-04T12:12:34;21.90;39.30
16172;DHT22;8192;53.596;10.166;2023-06-04T12:15:01;21.90;39.70
16172;DHT22;8192;53.596;10.166;2023-06-04T12:17:29;22.00;40.10
16172;DHT22;8192;53.596;10.166;2023-06-04T12:19:57;22.00;41.00
16172;DHT22;8192;53.596;10.166;2023-06-04T12:22:25;22.00;40.40
16172;DHT22;8192;53.596;10.166;2023-06-04T12:24:54;22.00;40.80
16172;DHT22;8192;53.596;10.166;2023-06-04T12:27:22;22.00;40.70
16172;DHT22;8192;53.596;10.166;2023-06-04T12:29:56;22.00;40.90
16172;DHT22;8192;53.596;10.166;2023-06-04T12:32:23;22.10;41.30
16172;DHT22;8192;53.596;10.166;2023-06-04T12:34:50;22.10;41.30
16172;DHT22;8192;53.596;10.166;2023-06-04T12:37:18;22.10;41.50
16172;DHT22;8192;53.596;10.166;2023-06-04T12:39:45;22.10;41.50
16172;DHT22;8192;53.596;10.166;2023-06-04T12:42:12;22.10;41.60
16172;DHT22;8192;53.596;10.166;2023-06-04T12:44:39;22.10;41.50
16172;DHT22;8192;53.596;10.166;2023-06-04T12:47:06;22.20;41.50
16172;DHT22;8192;53.596;10.166;2023-06-04T12:49:34;22.10;41.60
16172;DHT22;8192;53.596;10.166;2023-06-04T12:52:01;22.20;41.80
16172;DHT22;8192;53.596;10.166;2023-06-04T12:54:30;22.20;41.90
16172;DHT22;8192;53.596;10.166;2023-06-04T12:56:57;22.20;42.10
16172;DHT22;8192;53.596;10.166;2023-06-04T12:59:25;22.20;42.40
16172;DHT22;8192;53.596;10.166;2023-06-04T13:01:52;22.20;42.10
16172;DHT22;8192;53.596;10.166;2023-06-04T13:04:19;22.20;42.00
16172;DHT22;8192;53.596;10.166;2023-06-04T13:06:46;22.20;42.10
16172;DHT22;8192;53.596;10.166;2023-06-04T13:09:13;22.30;42.10
16172;DHT22;8192;53.596;10.166;2023-06-04T13:11:42;22.30;42.00
16172;DHT22;8192;53.596;10.166;2023-06-04T13:14:10;22.40;41.80
16172;DHT22;8192;53.596;10.166;2023-06-04T13:16:38;22.40;41.90
16172;DHT22;8192;53.596;10.166;2023-06-04T13:19:06;22.40;42.20
16172;DHT22;8192;53.596;10.166;2023-06-04T13:21:33;22.40;42.20
16172;DHT22;8192;53.596;10.166;2023-06-04T13:24:00;22.40;42.30
16172;DHT22;8192;53.596;10.166;2023-06-04T13:26:27;22.40;42.30
16172;DHT22;8192;53.596;10.166;2023-06-04T13:28:55;22.40;42.90
16172;DHT22;8192;53.596;10.166;2023-06-04T13:31:22;22.50;42.60
16172;DHT22;8192;53.596;10.166;2023-06-04T13:33:49;22.50;42.00
16172;DHT22;8192;53.596;10.166;2023-06-04T13:36:15;22.60;41.40
16172;DHT22;8192;53.596;10.166;2023-06-04T13:38:42;22.60;41.90
16172;DHT22;8192;53.596;10.166;2023-06-04T13:41:09;22.70;42.20
16172;DHT22;8192;53.596;10.166;2023-06-04T13:43:36;22.70;42.80
16172;DHT22;8192;53.596;10.166;2023-06-04T13:46:05;22.70;43.50
16172;DHT22;8192;53.596;10.166;2023-06-04T13:48:32;22.80;43.90
16172;DHT22;8192;53.596;10.166;2023-06-04T13:50:59;22.70;44.10
16172;DHT22;8192;53.596;10.166;2023-06-04T13:53:26;22.80;44.10
16172;DHT22;8192;53.596;10.166;2023-06-04T13:55:53;22.80;44.40
16172;DHT22;8192;53.596;10.166;2023-06-04T13:58:23;22.80;44.40
16172;DHT22;8192;53.596;10.166;2023-06-04T14:00:50;22.80;44.50
16172;DHT22;8192;53.596;10.166;2023-06-04T14:03:18;22.80;44.50
16172;DHT22;8192;53.596;10.166;2023-06-04T14:05:45;22.80;44.70
16172;DHT22;8192;53.596;10.166;2023-06-04T14:08:12;22.90;44.80
16172;DHT22;8192;53.596;10.166;2023-06-04T14:10:39;22.80;44.90
16172;DHT22;8192;53.596;10.166;2023-06-04T14:13:08;22.80;44.60
16172;DHT22;8192;53.596;10.166;2023-06-04T14:15:38;22.80;45.00
16172;DHT22;8192;53.596;10.166;2023-06-04T14:18:05;22.90;45.10
16172;DHT22;8192;53.596;10.166;2023-06-04T14:20:33;22.90;45.10
16172;DHT22;8192;53.596;10.166;2023-06-04T14:23:01;22.90;44.80
16172;DHT22;8192;53.596;10.166;2023-06-04T14:25:27;22.80;45.10
16172;DHT22;8192;53.596;10.166;2023-06-04T14:27:54;22.90;45.30
16172;DHT22;8192;53.596;10.166;2023-06-04T14:30:21;22.90;45.40
16172;DHT22;8192;53.596;10.166;2023-06-04T14:32:48;22.90;46.30
16172;DHT22;8192;53.596;10.166;2023-06-04T14:35:15;22.90;45.60
16172;DHT22;8192;53.596;10.166;2023-06-04T14:37:43;22.90;45.60
16172;DHT22;8192;53.596;10.166;2023-06-04T14:40:10;22.90;45.70
16172;DHT22;8192;53.596;10.166;2023-06-04T14:42:37;22.90;45.50
16172;DHT22;8192;53.596;10.166;2023-06-04T14:45:05;22.90;45.70
16172;DHT22;8192;53.596;10.166;2023-06-04T14:47:32;22.90;45.60
16172;DHT22;8192;53.596;10.166;2023-06-04T14:49:59;23.00;45.80
16172;DHT22;8192;53.596;10.166;2023-06-04T14:52:26;23.00;45.60
16172;DHT22;8192;53.596;10.166;2023-06-04T14:54:54;23.00;45.60
16172;DHT22;8192;53.596;10.166;2023-06-04T14:57:21;23.10;45.50
16172;DHT22;8192;53.596;10.166;2023-06-04T14:59:48;23.10;45.30
16172;DHT22;8192;53.596;10.166;2023-06-04T15:02:15;23.10;45.60
16172;DHT22;8192;53.596;10.166;2023-06-04T15:04:45;23.00;45.40
16172;DHT22;8192;53.596;10.166;2023-06-04T15:07:12;23.00;46.00
16172;DHT22;8192;53.596;10.166;2023-06-04T15:09:38;23.00;46.00
16172;DHT22;8192;53.596;10.166;2023-06-04T15:12:07;23.00;45.70
16172;DHT22;8192;53.596;10.166;2023-06-04T15:14:34;23.00;45.70
16172;DHT22;8192;53.596;10.166;2023-06-04T15:17:00;23.00;45.40
16172;DHT22;8192;53.596;10.166;2023-06-04T15:19:27;23.00;45.90
16172;DHT22;8192;53.596;10.166;2023-06-04T15:21:54;23.00;44.80
16172;DHT22;8192;53.596;10.166;2023-06-04T15:24:21;23.00;44.60
16172;DHT22;8192;53.596;10.166;2023-06-04T15:26:48;23.00;45.20
16172;DHT22;8192;53.596;10.166;2023-06-04T15:29:17;23.00;44.70
16172;DHT22;8192;53.596;10.166;2023-06-04T15:31:45;23.00;45.00
16172;DHT22;8192;53.596;10.166;2023-06-04T15:34:12;23.10;45.10